Time;durP1;ratioP1;P1;durP2;ratioP2;P2;SDS_P1;SDS_P2;PMS_P1;PMS_P2;Temp;Humidity;BMP_temperature;BMP_pressure;BME280_temperature;BME280_humidity;BME280_pressure;Samples;Min_cycle;Max_cycle;Signal;HPM_P1;HPM_P2
2021/12/07 00:00:54;;;;;;;1.57;0.97;;;;;;;;;;5011650;28;20858;-68
2021/12/07 00:03:20;;;;;;;2.00;1.23;;;;;;;;;;5011824;28;20413;-68
2021/12/07 00:05:47;;;;;;;1.47;0.83;;;;;;;;;;5011545;28;20921;-66
2021/12/07 00:08:13;;;;;;;1.17;0.77;;;;;;;;;;5011774;28;20516;-69
2021/12/07 00:10:41;;;;;;;1.30;0.90;;;;;;;;;;5012234;28;20428;-67
2021/12/07 00:13:09;;;;;;;3.13;0.90;;;;;;;;;;5011592;28;20402;-66
2021/12/07 00:15:36;;;;;;;1.47;0.90;;;;;;;;;;5011722;28;20413;-68
2021/12/07 00:18:02;;;;;;;1.30;0.90;;;;;;;;;;5011712;28;20433;-67
2021/12/07 00:20:28;;;;;;;2.10;1.10;;;;;;;;;;5011380;28;20421;-65
2021/12/07 00:22:57;;;;;;;2.40;1.17;;;;;;;;;;5011770;28;20414;-66
2021/12/07 00:25:24;;;;;;;2.40;1.00;;;;;;;;;;5011556;28;20543;-68
2021/12/07 00:27:50;;;;;;;1.50;0.70;;;;;;;;;;5011561;28;20524;-67
2021/12/07 00:30:16;;;;;;;1.50;1.00;;;;;;;;;;5011252;28;20418;-68
2021/12/07 00:32:50;;;;;;;1.57;0.80;;;;;;;;;;5011594;28;20421;-65
2021/12/07 00:35:33;;;;;;;1.27;0.80;;;;;;;;;;5011466;28;20510;-68
2021/12/07 00:38:00;;;;;;;1.30;0.93;;;;;;;;;;5011647;28;20444;-64
2021/12/07 00:40:26;;;;;;;1.23;0.80;;;;;;;;;;5011213;28;20433;-65
2021/12/07 00:42:52;;;;;;;1.40;0.90;;;;;;;;;;5011396;28;20891;-65
2021/12/07 00:45:21;;;;;;;1.40;0.90;;;;;;;;;;5011277;28;20422;-66
2021/12/07 00:47:51;;;;;;;2.50;0.80;;;;;;;;;;5011140;28;20437;-66
2021/12/07 00:50:19;;;;;;;1.00;0.70;;;;;;;;;;5012197;28;20417;-67
2021/12/07 00:52:45;;;;;;;1.20;0.70;;;;;;;;;;5011452;28;20433;-63
2021/12/07 00:55:15;;;;;;;1.20;0.70;;;;;;;;;;5011147;28;20454;-67
2021/12/07 00:57:41;;;;;;;1.50;0.90;;;;;;;;;;5011257;28;20426;-68
2021/12/07 01:00:09;;;;;;;1.97;1.10;;;;;;;;;;5010948;28;20402;-66
2021/12/07 01:02:36;;;;;;;1.70;1.10;;;;;;;;;;5010932;28;20543;-67
2021/12/07 01:05:10;;;;;;;1.80;1.20;;;;;;;;;;5011219;28;20406;-65
2021/12/07 01:26:19;;;;;;;2.30;0.87;;;;;;;;;;5012050;28;20891;-64
2021/12/07 01:28:46;;;;;;;1.10;0.70;;;;;;;;;;5010513;28;20433;-66
2021/12/07 01:31:20;;;;;;;1.57;0.90;;;;;;;;;;5010263;28;20402;-66
2021/12/07 01:34:13;;;;;;;1.57;0.93;;;;;;;;;;5010577;28;20479;-64
2021/12/07 01:40:21;;;;;;;1.17;0.70;;;;;;;;;;5011528;28;20433;-65
2021/12/07 01:47:39;;;;;;;1.37;0.80;;;;;;;;;;5011776;28;20453;-66
2021/12/07 01:50:23;;;;;;;1.40;0.73;;;;;;;;;;5010043;28;20417;-68
2021/12/07 02:00:48;;;;;;;2.13;0.80;;;;;;;;;;5011284;28;20476;-67
2021/12/07 02:03:14;;;;;;;1.20;0.70;;;;;;;;;;5010339;28;20485;-68
2021/12/07 02:05:40;;;;;;;1.20;0.83;;;;;;;;;;5010205;28;20405;-68
2021/12/07 02:08:06;;;;;;;1.40;0.80;;;;;;;;;;5010276;28;20436;-68
2021/12/07 02:10:33;;;;;;;1.60;0.90;;;;;;;;;;5009753;28;20573;-66
2021/12/07 02:13:06;;;;;;;1.70;0.90;;;;;;;;;;5010384;28;20455;-66
2021/12/07 02:15:33;;;;;;;1.63;1.20;;;;;;;;;;5010114;28;20461;-66
2021/12/07 02:17:59;;;;;;;1.20;0.90;;;;;;;;;;5010075;28;20937;-66
2021/12/07 02:20:27;;;;;;;1.27;0.70;;;;;;;;;;5009584;28;20469;-66
2021/12/07 02:22:54;;;;;;;1.30;0.90;;;;;;;;;;5009572;28;20455;-66
2021/12/07 02:25:20;;;;;;;1.10;0.70;;;;;;;;;;5009842;28;20435;-65
2021/12/07 02:27:48;;;;;;;1.93;0.87;;;;;;;;;;5009848;28;20433;-67
2021/12/07 02:30:16;;;;;;;1.83;0.90;;;;;;;;;;5009473;28;20421;-66
2021/12/07 02:32:42;;;;;;;1.40;0.90;;;;;;;;;;5009794;28;20538;-68
2021/12/07 02:35:11;;;;;;;1.20;0.70;;;;;;;;;;5009688;28;20461;-69
2021/12/07 02:37:37;;;;;;;1.30;0.83;;;;;;;;;;5009765;28;21067;-69
2021/12/07 02:40:05;;;;;;;1.33;0.70;;;;;;;;;;5009351;28;20420;-66
2021/12/07 02:42:31;;;;;;;1.33;0.87;;;;;;;;;;5009682;28;20410;-66
2021/12/07 02:44:57;;;;;;;2.77;0.90;;;;;;;;;;5009754;28;20774;-68
2021/12/07 02:47:23;;;;;;;1.93;0.90;;;;;;;;;;5009590;28;20433;-66
2021/12/07 02:49:50;;;;;;;1.10;0.60;;;;;;;;;;5009343;28;20410;-66
2021/12/07 02:52:17;;;;;;;1.40;0.73;;;;;;;;;;5009600;28;20886;-68
2021/12/07 02:54:45;;;;;;;1.00;0.60;;;;;;;;;;5009383;28;20465;-64
2021/12/07 02:57:15;;;;;;;1.40;0.90;;;;;;;;;;5009370;28;20475;-65
2021/12/07 02:59:44;;;;;;;1.17;0.70;;;;;;;;;;5009232;28;20416;-69
2021/12/07 03:02:12;;;;;;;1.27;0.77;;;;;;;;;;5009505;28;20500;-68
2021/12/07 03:04:47;;;;;;;1.43;0.90;;;;;;;;;;5009256;28;20456;-65
2021/12/07 03:10:04;;;;;;;1.73;1.00;;;;;;;;;;5009961;28;20434;-69
2021/12/07 03:26:12;;;;;;;1.40;0.77;;;;;;;;;;5010132;28;20517;-68
2021/12/07 03:28:40;;;;;;;1.00;0.70;;;;;;;;;;5008725;28;20929;-66
2021/12/07 03:31:06;;;;;;;1.07;0.63;;;;;;;;;;5008430;28;20409;-68
2021/12/07 03:33:32;;;;;;;1.60;0.80;;;;;;;;;;5010220;28;20453;-69
2021/12/07 03:35:59;;;;;;;1.03;0.60;;;;;;;;;;5012101;28;20421;-66
2021/12/07 03:38:25;;;;;;;1.00;0.70;;;;;;;;;;5012054;28;20444;-68
2021/12/07 03:40:51;;;;;;;1.30;0.60;;;;;;;;;;5011739;28;20494;-68
2021/12/07 03:43:18;;;;;;;1.37;0.70;;;;;;;;;;5013515;28;20428;-65
2021/12/07 03:45:44;;;;;;;1.10;0.60;;;;;;;;;;5012035;28;20409;-66
2021/12/07 03:48:11;;;;;;;1.00;0.57;;;;;;;;;;5012046;28;20505;-65
2021/12/07 03:50:38;;;;;;;1.20;0.70;;;;;;;;;;5011667;28;20758;-67
2021/12/07 03:53:04;;;;;;;1.20;0.70;;;;;;;;;;5011879;28;20463;-65
2021/12/07 03:55:31;;;;;;;1.30;0.77;;;;;;;;;;5011834;28;20459;-68
2021/12/07 03:57:57;;;;;;;1.10;0.60;;;;;;;;;;5012076;28;20437;-70
2021/12/07 04:00:24;;;;;;;2.03;0.60;;;;;;;;;;5012904;28;20483;-66
2021/12/07 04:02:51;;;;;;;1.10;0.70;;;;;;;;;;5012037;28;20414;-66
2021/12/07 04:05:19;;;;;;;1.23;0.90;;;;;;;;;;5012010;28;20522;-67
2021/12/07 04:07:45;;;;;;;1.20;0.70;;;;;;;;;;5011771;28;20434;-64
2021/12/07 04:10:13;;;;;;;3.93;0.60;;;;;;;;;;5011576;28;20437;-66
2021/12/07 04:12:39;;;;;;;1.00;0.60;;;;;;;;;;5011829;28;20428;-68
2021/12/07 04:15:06;;;;;;;1.00;0.57;;;;;;;;;;5011573;28;20457;-68
2021/12/07 04:17:32;;;;;;;2.13;0.60;;;;;;;;;;5011530;28;20433;-65
2021/12/07 04:19:58;;;;;;;1.17;0.73;;;;;;;;;;5011186;28;20426;-65
2021/12/07 04:22:25;;;;;;;1.03;0.53;;;;;;;;;;5011566;28;20434;-68
2021/12/07 04:24:51;;;;;;;1.00;0.60;;;;;;;;;;5011782;28;20413;-68
2021/12/07 04:27:18;;;;;;;1.50;0.70;;;;;;;;;;5011338;28;20437;-69
2021/12/07 04:29:45;;;;;;;1.20;0.70;;;;;;;;;;5010842;28;20414;-65
2021/12/07 04:32:11;;;;;;;1.00;0.70;;;;;;;;;;5011416;28;20455;-65
2021/12/07 04:34:38;;;;;;;2.60;0.70;;;;;;;;;;5011244;28;20457;-67
2021/12/07 04:37:05;;;;;;;1.10;0.73;;;;;;;;;;5011542;28;20434;-67
2021/12/07 04:39:31;;;;;;;1.00;0.60;;;;;;;;;;5010991;28;20412;-65
2021/12/07 04:41:57;;;;;;;1.10;0.60;;;;;;;;;;5011623;28;20410;-64
2021/12/07 04:44:23;;;;;;;1.00;0.53;;;;;;;;;;5011365;28;20925;-64
2021/12/07 04:47:18;;;;;;;0.97;0.50;;;;;;;;;;5011463;28;20432;-66
2021/12/07 04:49:59;;;;;;;1.40;0.60;;;;;;;;;;5012283;28;20496;-67
2021/12/07 04:57:54;;;;;;;0.90;0.50;;;;;;;;;;5012597;28;20413;-68
2021/12/07 05:00:26;;;;;;;1.10;0.60;;;;;;;;;;5010963;28;20405;-65
2021/12/07 05:02:57;;;;;;;1.00;0.57;;;;;;;;;;5011156;28;20893;-68
2021/12/07 05:05:27;;;;;;;1.63;0.60;;;;;;;;;;5011119;28;20890;-65
2021/12/07 05:07:55;;;;;;;1.00;0.60;;;;;;;;;;5011173;28;20437;-68
2021/12/07 05:10:35;;;;;;;1.37;0.63;;;;;;;;;;5010776;28;20533;-65
2021/12/07 05:18:33;;;;;;;0.90;0.60;;;;;;;;;;5012163;28;20433;-64
2021/12/07 05:40:05;;;;;;;2.80;0.80;;;;;;;;;;5011203;28;20782;-65
2021/12/07 05:42:31;;;;;;;3.93;1.23;;;;;;;;;;4996856;28;20991;-65
2021/12/07 05:44:57;;;;;;;1.70;1.10;;;;;;;;;;4990892;28;20465;-67
2021/12/07 05:47:24;;;;;;;5.00;0.87;;;;;;;;;;4990912;28;20437;-66
2021/12/07 05:49:50;;;;;;;1.30;0.80;;;;;;;;;;4990573;28;20493;-65
2021/12/07 05:52:16;;;;;;;2.40;0.87;;;;;;;;;;5006654;28;20417;-69
2021/12/07 05:54:42;;;;;;;2.07;1.10;;;;;;;;;;4991767;28;21228;-68
2021/12/07 05:57:08;;;;;;;2.13;0.80;;;;;;;;;;4996302;28;20430;-66
2021/12/07 05:59:35;;;;;;;3.43;0.87;;;;;;;;;;5008050;28;20974;-69
2021/12/07 06:02:01;;;;;;;2.63;1.10;;;;;;;;;;5010067;28;20496;-66
2021/12/07 06:04:30;;;;;;;4.87;1.00;;;;;;;;;;5011039;28;20410;-68
2021/12/07 06:06:56;;;;;;;3.33;0.80;;;;;;;;;;5009493;28;20442;-69
2021/12/07 06:09:22;;;;;;;1.30;0.80;;;;;;;;;;5004785;28;20437;-67
2021/12/07 06:11:50;;;;;;;1.90;0.80;;;;;;;;;;5009533;28;20426;-68
2021/12/07 06:14:19;;;;;;;2.27;1.10;;;;;;;;;;5024866;28;20537;-66
2021/12/07 06:16:45;;;;;;;2.10;0.90;;;;;;;;;;5009368;28;20920;-65
2021/12/07 06:19:11;;;;;;;5.43;1.93;;;;;;;;;;5009628;28;20852;-66
2021/12/07 06:21:56;;;;;;;9.07;1.50;;;;;;;;;;5009555;28;20410;-67
2021/12/07 06:24:22;;;;;;;5.80;1.73;;;;;;;;;;5012216;28;20427;-66
2021/12/07 06:26:48;;;;;;;4.40;1.30;;;;;;;;;;4995771;28;20845;-67
2021/12/07 06:29:14;;;;;;;6.20;1.57;;;;;;;;;;5000162;28;20591;-65
2021/12/07 06:31:42;;;;;;;2.60;1.30;;;;;;;;;;4989568;28;20433;-63
2021/12/07 06:34:10;;;;;;;3.87;1.50;;;;;;;;;;4989754;28;20461;-65
2021/12/07 06:36:37;;;;;;;2.63;1.10;;;;;;;;;;4990033;28;20426;-66
2021/12/07 06:39:04;;;;;;;4.00;1.87;;;;;;;;;;4989764;28;20505;-64
2021/12/07 06:41:30;;;;;;;5.97;1.67;;;;;;;;;;4991358;28;20913;-63
2021/12/07 06:43:56;;;;;;;4.87;1.80;;;;;;;;;;4989901;28;20890;-66
2021/12/07 06:46:22;;;;;;;10.50;1.50;;;;;;;;;;4989806;28;20426;-64
2021/12/07 06:48:48;;;;;;;8.57;1.40;;;;;;;;;;4990010;28;20958;-65
2021/12/07 06:51:14;;;;;;;7.37;1.83;;;;;;;;;;4989625;28;20887;-65
2021/12/07 06:53:40;;;;;;;7.80;1.40;;;;;;;;;;4989879;28;20887;-66
2021/12/07 06:56:07;;;;;;;5.40;0.90;;;;;;;;;;4989861;28;20514;-64
2021/12/07 06:58:34;;;;;;;2.03;1.03;;;;;;;;;;4989652;28;20419;-65
2021/12/07 07:01:00;;;;;;;1.80;0.77;;;;;;;;;;4989070;28;20417;-65
2021/12/07 07:03:26;;;;;;;1.73;0.73;;;;;;;;;;4989390;28;20410;-65
2021/12/07 07:05:53;;;;;;;2.50;0.93;;;;;;;;;;4989409;28;20903;-64
2021/12/07 07:08:19;;;;;;;1.40;0.90;;;;;;;;;;4990691;28;20476;-65
2021/12/07 07:10:46;;;;;;;2.30;0.80;;;;;;;;;;4992432;28;20483;-65
2021/12/07 07:13:12;;;;;;;2.60;0.80;;;;;;;;;;4992844;28;20505;-66
2021/12/07 07:15:39;;;;;;;4.10;0.60;;;;;;;;;;4992702;28;20450;-64
2021/12/07 07:18:05;;;;;;;1.40;0.77;;;;;;;;;;4992712;28;20430;-67
2021/12/07 07:20:31;;;;;;;1.67;0.70;;;;;;;;;;4992516;28;20410;-64
2021/12/07 07:22:57;;;;;;;1.20;0.60;;;;;;;;;;4992718;28;20479;-67
2021/12/07 07:25:23;;;;;;;1.43;0.70;;;;;;;;;;4992706;28;20434;-64
2021/12/07 07:27:49;;;;;;;1.60;0.70;;;;;;;;;;4992566;28;20426;-67
2021/12/07 07:30:17;;;;;;;1.50;0.67;;;;;;;;;;4992271;28;20624;-64
2021/12/07 07:32:43;;;;;;;1.67;0.80;;;;;;;;;;4992556;28;20421;-64
2021/12/07 07:35:10;;;;;;;1.30;0.73;;;;;;;;;;4992478;28;20970;-67
2021/12/07 07:37:37;;;;;;;4.10;0.80;;;;;;;;;;4992541;28;20430;-66
2021/12/07 07:40:05;;;;;;;1.60;0.73;;;;;;;;;;4992003;28;20910;-65
2021/12/07 07:42:32;;;;;;;3.13;0.77;;;;;;;;;;4992417;28;20422;-64
2021/12/07 07:44:58;;;;;;;1.43;0.70;;;;;;;;;;4992389;28;20410;-65
2021/12/07 07:47:24;;;;;;;2.10;0.63;;;;;;;;;;4992309;28;20441;-64
2021/12/07 07:49:50;;;;;;;1.60;0.93;;;;;;;;;;4992038;28;20452;-65
2021/12/07 07:52:16;;;;;;;1.20;0.60;;;;;;;;;;5027314;23;20478;-65
2021/12/07 07:54:42;;;;;;;2.33;0.77;;;;;;;;;;5091646;22;20952;-65
2021/12/07 07:57:08;;;;;;;1.17;0.80;;;;;;;;;;5073479;28;20508;-67
2021/12/07 07:59:36;;;;;;;1.00;0.60;;;;;;;;;;5073473;28;20736;-66
2021/12/07 08:02:02;;;;;;;1.87;0.70;;;;;;;;;;5074695;28;20442;-66
2021/12/07 08:04:28;;;;;;;1.00;0.60;;;;;;;;;;5075817;28;20391;-67
2021/12/07 08:06:54;;;;;;;2.37;1.17;;;;;;;;;;5089824;22;20425;-74
2021/12/07 08:09:20;;;;;;;0.90;0.60;;;;;;;;;;5091014;22;20493;-73
2021/12/07 08:11:46;;;;;;;1.50;0.70;;;;;;;;;;5077581;28;20409;-74
2021/12/07 08:14:12;;;;;;;1.10;0.70;;;;;;;;;;5077714;28;20505;-74
2021/12/07 08:16:38;;;;;;;1.33;0.73;;;;;;;;;;5077798;28;20409;-74
2021/12/07 08:19:04;;;;;;;1.10;0.60;;;;;;;;;;5077157;28;20556;-74
2021/12/07 08:21:31;;;;;;;1.83;0.90;;;;;;;;;;5077210;28;20466;-74
2021/12/07 08:23:57;;;;;;;1.80;0.63;;;;;;;;;;5077419;28;20447;-74
2021/12/07 08:26:24;;;;;;;2.23;0.63;;;;;;;;;;5077596;28;20410;-74
2021/12/07 08:28:51;;;;;;;1.10;0.70;;;;;;;;;;5077491;28;20426;-74
2021/12/07 08:31:17;;;;;;;1.83;0.70;;;;;;;;;;5077175;28;20455;-74
2021/12/07 08:33:43;;;;;;;1.57;0.77;;;;;;;;;;5077403;28;20464;-74
2021/12/07 08:36:10;;;;;;;1.53;0.73;;;;;;;;;;5077286;28;20398;-74
2021/12/07 08:38:36;;;;;;;1.47;0.60;;;;;;;;;;5077206;28;20429;-74
2021/12/07 08:41:03;;;;;;;1.03;0.50;;;;;;;;;;5076879;28;20437;-74
2021/12/07 08:43:30;;;;;;;4.70;0.70;;;;;;;;;;5077663;28;20402;-74
2021/12/07 08:45:57;;;;;;;2.90;1.10;;;;;;;;;;5077087;28;20394;-74
2021/12/07 08:48:23;;;;;;;3.00;1.03;;;;;;;;;;5077513;28;20429;-73
2021/12/07 08:50:49;;;;;;;4.70;1.13;;;;;;;;;;5076943;28;20429;-71
2021/12/07 08:53:17;;;;;;;8.40;1.10;;;;;;;;;;5077567;28;20807;-71
2021/12/07 09:01:15;;;;;;;7.50;1.37;;;;;;;;;;5084167;28;20449;-72
2021/12/07 09:03:41;;;;;;;3.90;1.20;;;;;;;;;;5084027;28;20398;-72
2021/12/07 09:06:07;;;;;;;5.40;0.80;;;;;;;;;;5085578;28;20399;-72
2021/12/07 09:08:34;;;;;;;3.20;1.13;;;;;;;;;;5066024;28;20526;-72
2021/12/07 09:11:00;;;;;;;2.60;0.83;;;;;;;;;;5065847;28;20441;-72
2021/12/07 09:13:27;;;;;;;1.67;0.80;;;;;;;;;;5067618;28;20751;-73
2021/12/07 09:15:54;;;;;;;1.30;0.77;;;;;;;;;;5065571;28;20409;-72
2021/12/07 09:18:20;;;;;;;2.53;1.10;;;;;;;;;;5058080;28;20522;-72
2021/12/07 09:20:46;;;;;;;3.93;1.00;;;;;;;;;;5074300;28;20895;-72
2021/12/07 09:23:13;;;;;;;1.87;0.93;;;;;;;;;;5057560;28;20532;-73
2021/12/07 09:25:39;;;;;;;2.20;1.20;;;;;;;;;;5060374;28;20395;-72
2021/12/07 09:28:06;;;;;;;1.47;0.87;;;;;;;;;;5056338;28;20518;-72
2021/12/07 09:30:32;;;;;;;1.33;0.70;;;;;;;;;;5056054;28;20403;-72
2021/12/07 09:32:59;;;;;;;2.30;0.93;;;;;;;;;;5055435;28;20426;-72
2021/12/07 09:35:25;;;;;;;1.20;0.70;;;;;;;;;;5055959;28;20989;-72
2021/12/07 09:37:52;;;;;;;1.70;1.10;;;;;;;;;;5056344;28;20435;-72
2021/12/07 09:40:20;;;;;;;2.17;0.80;;;;;;;;;;5055787;28;20426;-73
2021/12/07 09:42:46;;;;;;;2.00;1.17;;;;;;;;;;5056449;28;20395;-72
2021/12/07 09:45:13;;;;;;;4.37;1.07;;;;;;;;;;5056131;28;20465;-73
2021/12/07 09:47:39;;;;;;;2.83;1.00;;;;;;;;;;5056365;28;20861;-73
2021/12/07 09:50:06;;;;;;;1.57;0.93;;;;;;;;;;5055735;28;20407;-73
2021/12/07 09:52:32;;;;;;;1.50;0.83;;;;;;;;;;5055972;28;20411;-73
2021/12/07 09:54:58;;;;;;;11.03;0.80;;;;;;;;;;5055832;28;20446;-73
2021/12/07 09:57:25;;;;;;;1.30;0.77;;;;;;;;;;5055956;28;20422;-73
2021/12/07 09:59:51;;;;;;;3.07;1.10;;;;;;;;;;5055785;28;20403;-72
2021/12/07 10:02:18;;;;;;;2.17;1.30;;;;;;;;;;5055506;28;20410;-71
2021/12/07 10:04:44;;;;;;;1.20;0.80;;;;;;;;;;5055757;28;20429;-72
2021/12/07 10:07:10;;;;;;;1.20;0.67;;;;;;;;;;5073733;28;20422;-72
2021/12/07 10:09:37;;;;;;;1.00;0.60;;;;;;;;;;5055541;28;20430;-72
2021/12/07 10:12:03;;;;;;;2.63;0.70;;;;;;;;;;5055924;28;20411;-72
2021/12/07 10:14:40;;;;;;;1.53;1.00;;;;;;;;;;5055756;28;20455;-72
2021/12/07 10:17:06;;;;;;;2.53;1.10;;;;;;;;;;5055662;28;20472;-73
2021/12/07 10:19:35;;;;;;;1.93;0.97;;;;;;;;;;5055467;28;20410;-72
2021/12/07 10:22:07;;;;;;;3.47;0.83;;;;;;;;;;5055635;28;20514;-73
2021/12/07 10:24:54;;;;;;;1.73;0.70;;;;;;;;;;5055638;28;20415;-73
2021/12/07 10:27:32;;;;;;;4.70;1.00;;;;;;;;;;5055505;28;20435;-73
2021/12/07 10:29:59;;;;;;;1.80;0.83;;;;;;;;;;5055346;28;20414;-72
2021/12/07 10:32:25;;;;;;;1.30;0.60;;;;;;;;;;5055594;28;20411;-72
2021/12/07 10:34:51;;;;;;;2.03;0.70;;;;;;;;;;5055632;28;20780;-72
2021/12/07 10:37:18;;;;;;;1.30;0.80;;;;;;;;;;5073376;28;20433;-73
2021/12/07 10:39:52;;;;;;;1.13;0.73;;;;;;;;;;5055095;28;20410;-73
2021/12/07 10:42:18;;;;;;;1.40;0.80;;;;;;;;;;5055092;28;20409;-72
2021/12/07 10:44:44;;;;;;;1.53;0.77;;;;;;;;;;5055025;28;20403;-73
2021/12/07 10:47:15;;;;;;;1.17;0.80;;;;;;;;;;5055031;28;20434;-74
2021/12/07 10:49:42;;;;;;;1.00;0.60;;;;;;;;;;5054805;28;20403;-74
2021/12/07 10:52:08;;;;;;;1.17;0.70;;;;;;;;;;5054890;28;20407;-73
2021/12/07 10:54:36;;;;;;;1.90;1.03;;;;;;;;;;5054920;28;20461;-73
2021/12/07 10:57:03;;;;;;;1.30;1.00;;;;;;;;;;5055008;28;20873;-73
2021/12/07 10:59:30;;;;;;;2.73;0.90;;;;;;;;;;5054929;28;20403;-73
2021/12/07 11:01:56;;;;;;;2.70;1.10;;;;;;;;;;5055235;28;20415;-74
2021/12/07 11:04:22;;;;;;;2.13;1.13;;;;;;;;;;5055268;28;20445;-74
2021/12/07 11:07:04;;;;;;;5.73;1.00;;;;;;;;;;5055093;28;20411;-73
2021/12/07 11:09:30;;;;;;;2.13;0.93;;;;;;;;;;5054836;28;20430;-73
2021/12/07 11:12:07;;;;;;;3.50;1.27;;;;;;;;;;5055240;28;20419;-72
2021/12/07 11:14:47;;;;;;;7.27;1.10;;;;;;;;;;5054981;28;20974;-72
2021/12/07 11:17:13;;;;;;;1.77;0.80;;;;;;;;;;5055025;28;20442;-72
2021/12/07 11:19:39;;;;;;;1.20;0.63;;;;;;;;;;5054987;28;20414;-72
2021/12/07 11:22:06;;;;;;;6.40;1.20;;;;;;;;;;5055004;28;20469;-72
2021/12/07 11:24:36;;;;;;;1.93;0.90;;;;;;;;;;5054774;28;20767;-72
2021/12/07 11:29:57;;;;;;;1.13;0.60;;;;;;;;;;5072797;28;20402;-72
2021/12/07 11:32:24;;;;;;;1.60;0.80;;;;;;;;;;5054806;28;20806;-72
2021/12/07 11:34:50;;;;;;;1.30;0.70;;;;;;;;;;5054922;28;20478;-72
2021/12/07 11:37:16;;;;;;;3.90;1.20;;;;;;;;;;5054739;28;20461;-73
2021/12/07 11:39:48;;;;;;;6.60;1.00;;;;;;;;;;5054730;28;20407;-72
2021/12/07 11:42:25;;;;;;;2.40;0.80;;;;;;;;;;5054751;28;20782;-72
2021/12/07 11:44:54;;;;;;;1.80;1.10;;;;;;;;;;5054835;28;20493;-73
2021/12/07 11:47:25;;;;;;;5.43;1.10;;;;;;;;;;5055012;28;20438;-72
2021/12/07 11:49:51;;;;;;;1.30;0.70;;;;;;;;;;5054622;28;20410;-72
2021/12/07 11:52:17;;;;;;;1.20;0.80;;;;;;;;;;5055005;28;20407;-72
2021/12/07 11:54:43;;;;;;;1.50;0.70;;;;;;;;;;5054936;28;20450;-72
2021/12/07 11:57:12;;;;;;;2.07;0.70;;;;;;;;;;5058424;28;20427;-72
2021/12/07 11:59:39;;;;;;;1.30;0.63;;;;;;;;;;5057924;28;20964;-72
2021/12/07 12:02:05;;;;;;;1.90;0.83;;;;;;;;;;5058140;28;20431;-73
2021/12/07 12:04:32;;;;;;;1.43;0.60;;;;;;;;;;5058219;28;20411;-73
2021/12/07 12:06:59;;;;;;;2.60;0.83;;;;;;;;;;5058076;28;20861;-72
2021/12/07 12:09:25;;;;;;;5.20;1.00;;;;;;;;;;5057746;28;20438;-73
2021/12/07 12:12:07;;;;;;;1.37;0.87;;;;;;;;;;5055622;28;20427;-76
2021/12/07 12:14:52;;;;;;;1.50;1.00;;;;;;;;;;5057716;28;20508;-74
2021/12/07 12:17:38;;;;;;;1.13;0.67;;;;;;;;;;5057661;28;20432;-75
2021/12/07 12:20:04;;;;;;;2.57;1.27;;;;;;;;;;5057957;28;20449;-74
2021/12/07 12:22:31;;;;;;;2.50;0.90;;;;;;;;;;5075581;28;20411;-75
2021/12/07 12:24:59;;;;;;;4.47;1.50;;;;;;;;;;5057860;28;20415;-72
2021/12/07 12:27:30;;;;;;;12.73;2.40;;;;;;;;;;5057357;28;20914;-73
2021/12/07 12:29:57;;;;;;;7.43;2.70;;;;;;;;;;5057561;28;20399;-75
2021/12/07 12:32:27;;;;;;;18.17;5.40;;;;;;;;;;5057419;28;20419;-73
2021/12/07 12:34:55;;;;;;;15.33;6.47;;;;;;;;;;5057398;28;20580;-72
2021/12/07 12:37:22;;;;;;;10.43;4.80;;;;;;;;;;5057099;28;20999;-72
2021/12/07 12:39:54;;;;;;;11.97;5.77;;;;;;;;;;5057194;28;20402;-72
2021/12/07 12:42:20;;;;;;;18.30;5.30;;;;;;;;;;5057384;28;20395;-72
2021/12/07 12:44:46;;;;;;;21.20;7.87;;;;;;;;;;5057357;28;20401;-72
2021/12/07 12:47:12;;;;;;;11.03;5.07;;;;;;;;;;5057252;28;20464;-72
2021/12/07 12:49:39;;;;;;;22.17;7.27;;;;;;;;;;5056752;28;20891;-72
2021/12/07 12:52:06;;;;;;;26.03;10.10;;;;;;;;;;5057379;28;20411;-72
2021/12/07 12:54:43;;;;;;;8.70;3.63;;;;;;;;;;5057220;28;20475;-72
2021/12/07 12:57:16;;;;;;;11.30;4.87;;;;;;;;;;5057355;28;20438;-72
2021/12/07 12:59:44;;;;;;;14.53;5.47;;;;;;;;;;5074870;28;20894;-72
2021/12/07 13:02:11;;;;;;;15.77;6.67;;;;;;;;;;5057286;28;20716;-72
2021/12/07 13:04:37;;;;;;;14.07;6.67;;;;;;;;;;5057131;28;20413;-72
2021/12/07 13:09:36;;;;;;;12.27;6.60;;;;;;;;;;5074596;28;20419;-72
2021/12/07 13:12:03;;;;;;;16.87;4.93;;;;;;;;;;5056945;28;20411;-72
2021/12/07 13:14:29;;;;;;;17.23;7.37;;;;;;;;;;5074534;28;20453;-72
2021/12/07 13:17:06;;;;;;;14.03;6.00;;;;;;;;;;5056920;28;20521;-72
2021/12/07 13:19:33;;;;;;;21.00;9.67;;;;;;;;;;5056398;28;20871;-72
2021/12/07 13:22:04;;;;;;;8.47;4.17;;;;;;;;;;5056791;28;20448;-72
2021/12/07 13:24:35;;;;;;;24.33;9.30;;;;;;;;;;5056567;28;20413;-72
2021/12/07 13:27:10;;;;;;;30.47;10.60;;;;;;;;;;5056833;28;20469;-72
2021/12/07 13:29:37;;;;;;;17.90;7.03;;;;;;;;;;5056269;28;20894;-71
2021/12/07 13:32:04;;;;;;;20.83;7.87;;;;;;;;;;5056848;28;20418;-71
2021/12/07 13:34:33;;;;;;;16.00;6.67;;;;;;;;;;5074219;28;21015;-72
2021/12/07 13:37:01;;;;;;;12.20;4.40;;;;;;;;;;5056462;28;20422;-72
2021/12/07 13:39:27;;;;;;;14.40;6.40;;;;;;;;;;5056072;28;20409;-72
2021/12/07 13:41:53;;;;;;;21.80;8.37;;;;;;;;;;5056386;28;20500;-72
2021/12/07 13:44:19;;;;;;;12.03;4.97;;;;;;;;;;5056166;28;20479;-72
2021/12/07 13:46:45;;;;;;;8.53;3.73;;;;;;;;;;5056192;28;20407;-72
2021/12/07 13:49:12;;;;;;;13.40;4.97;;;;;;;;;;5055788;28;20805;-72
2021/12/07 13:51:39;;;;;;;15.93;6.57;;;;;;;;;;5056227;28;20411;-72
2021/12/07 13:54:06;;;;;;;15.17;5.67;;;;;;;;;;5056035;28;20489;-72
2021/12/07 13:56:34;;;;;;;19.23;6.90;;;;;;;;;;5056051;28;20505;-72
2021/12/07 13:59:07;;;;;;;17.60;6.57;;;;;;;;;;5055898;28;20410;-72
2021/12/07 14:01:34;;;;;;;6.50;3.20;;;;;;;;;;5055981;28;20418;-72
2021/12/07 14:04:02;;;;;;;13.53;6.17;;;;;;;;;;5055807;28;20426;-72
2021/12/07 14:06:28;;;;;;;16.90;6.30;;;;;;;;;;5055884;28;20496;-72
2021/12/07 14:09:01;;;;;;;19.00;7.10;;;;;;;;;;5101408;22;20477;-83
2021/12/07 14:11:27;;;;;;;13.80;5.40;;;;;;;;;;5078130;28;20418;-83
2021/12/07 14:13:53;;;;;;;23.47;7.40;;;;;;;;;;5095353;28;20481;-83
2021/12/07 14:16:23;;;;;;;12.67;4.53;;;;;;;;;;5079312;28;20405;-83
2021/12/07 14:18:49;;;;;;;8.97;4.53;;;;;;;;;;5077817;28;20433;-84
2021/12/07 14:21:15;;;;;;;7.60;4.07;;;;;;;;;;5096902;28;20522;-84
2021/12/07 14:23:43;;;;;;;14.63;6.50;;;;;;;;;;5096861;28;20406;-84
2021/12/07 14:26:09;;;;;;;11.20;5.97;;;;;;;;;;5097104;28;20463;-84
2021/12/07 14:28:37;;;;;;;9.70;4.70;;;;;;;;;;5077872;28;20653;-83
2021/12/07 14:31:06;;;;;;;13.57;4.80;;;;;;;;;;5078726;28;20826;-84
2021/12/07 14:33:36;;;;;;;17.90;5.97;;;;;;;;;;5097025;28;20915;-83
2021/12/07 14:36:03;;;;;;;10.17;4.00;;;;;;;;;;5096201;28;20551;-84
2021/12/07 14:38:33;;;;;;;12.10;3.80;;;;;;;;;;5081111;28;20445;-84
2021/12/07 14:41:08;;;;;;;12.10;4.23;;;;;;;;;;5081163;28;20417;-84
2021/12/07 14:43:34;;;;;;;12.33;3.93;;;;;;;;;;5079415;28;20492;-84
2021/12/07 14:46:01;;;;;;;8.97;3.63;;;;;;;;;;5078357;28;20801;-84
2021/12/07 14:48:27;;;;;;;11.73;4.77;;;;;;;;;;5078516;28;20463;-84
2021/12/07 14:50:53;;;;;;;10.53;4.60;;;;;;;;;;5077661;28;20405;-84
2021/12/07 14:53:39;;;;;;;12.70;4.00;;;;;;;;;;5096491;28;20402;-84
2021/12/07 14:56:05;;;;;;;11.00;5.27;;;;;;;;;;5077688;28;20476;-84
2021/12/07 14:58:32;;;;;;;9.30;3.43;;;;;;;;;;5077130;28;20430;-84
2021/12/07 15:00:58;;;;;;;8.33;3.10;;;;;;;;;;5096658;28;20889;-83
2021/12/07 15:03:33;;;;;;;6.90;3.63;;;;;;;;;;5078572;28;20893;-83
2021/12/07 15:05:59;;;;;;;9.73;4.13;;;;;;;;;;5096689;28;20401;-83
2021/12/07 15:08:26;;;;;;;12.20;4.07;;;;;;;;;;5077904;28;20432;-84
2021/12/07 15:10:52;;;;;;;7.20;3.37;;;;;;;;;;5095617;28;20414;-84
2021/12/07 15:13:18;;;;;;;6.73;3.37;;;;;;;;;;5076985;28;20463;-84
2021/12/07 15:15:44;;;;;;;7.00;2.50;;;;;;;;;;5077479;28;20454;-84
2021/12/07 15:18:13;;;;;;;6.17;3.00;;;;;;;;;;5078177;28;20491;-84
2021/12/07 15:20:40;;;;;;;3.83;2.23;;;;;;;;;;5096012;28;20904;-84
2021/12/07 15:23:06;;;;;;;6.03;2.33;;;;;;;;;;5078003;28;20414;-83
2021/12/07 15:25:32;;;;;;;7.53;2.40;;;;;;;;;;5096767;28;20428;-84
2021/12/07 15:27:59;;;;;;;4.97;2.13;;;;;;;;;;5096416;28;20773;-84
2021/12/07 15:30:26;;;;;;;7.03;2.93;;;;;;;;;;5081195;28;20434;-84
2021/12/07 15:32:52;;;;;;;8.00;3.50;;;;;;;;;;5082057;28;20409;-83
2021/12/07 15:35:22;;;;;;;11.03;3.50;;;;;;;;;;5081526;28;21009;-84
2021/12/07 15:37:49;;;;;;;4.20;2.27;;;;;;;;;;5099635;28;20406;-84
2021/12/07 15:40:15;;;;;;;5.77;2.57;;;;;;;;;;5099526;28;20534;-84
2021/12/07 15:42:41;;;;;;;5.37;2.33;;;;;;;;;;5077743;28;21039;-80
2021/12/07 15:45:09;;;;;;;3.47;1.60;;;;;;;;;;5077514;28;20421;-81
2021/12/07 15:47:40;;;;;;;7.53;2.40;;;;;;;;;;5095807;28;20413;-80
2021/12/07 15:50:08;;;;;;;4.50;1.83;;;;;;;;;;5077350;28;20488;-81
2021/12/07 15:52:39;;;;;;;3.90;2.37;;;;;;;;;;5077398;28;20405;-80
2021/12/07 15:55:16;;;;;;;4.47;2.10;;;;;;;;;;5095356;28;20964;-80
2021/12/07 15:57:47;;;;;;;6.10;2.40;;;;;;;;;;5077394;28;20413;-80
2021/12/07 16:00:18;;;;;;;5.27;2.80;;;;;;;;;;5095928;28;20444;-80
2021/12/07 16:02:52;;;;;;;3.57;1.50;;;;;;;;;;5079289;28;20517;-80
2021/12/07 16:05:18;;;;;;;4.67;2.23;;;;;;;;;;5097373;28;20454;-82
2021/12/07 16:07:46;;;;;;;6.13;2.30;;;;;;;;;;5078587;28;20414;-83
2021/12/07 16:10:14;;;;;;;5.87;2.50;;;;;;;;;;5077507;28;20437;-83
2021/12/07 16:12:40;;;;;;;3.43;1.97;;;;;;;;;;5076891;28;20410;-83
2021/12/07 16:15:17;;;;;;;5.87;2.20;;;;;;;;;;5077371;28;20453;-83
2021/12/07 16:17:44;;;;;;;5.00;2.17;;;;;;;;;;5077525;28;20897;-83